sensor_id;sensor_type;location;lat;lon;timestamp;pressure;altitude;pressure_sealevel;temperature;humidity
23118;BME280;11728;50.624;6.014;2022-10-16T00:04:27;97864.63;;;14.35;97.88
23118;BME280;11728;50.624;6.014;2022-10-16T00:09:48;97851.50;;;14.32;97.86
23118;BME280;11728;50.624;6.014;2022-10-16T00:15:09;97856.06;;;14.29;97.28
23118;BME280;11728;50.624;6.014;2022-10-16T00:20:30;97845.94;;;14.18;96.89
23118;BME280;11728;50.624;6.014;2022-10-16T00:25:55;97862.91;;;14.14;96.41
23118;BME280;11728;50.624;6.014;2022-10-16T00:31:19;97852.28;;;14.14;96.15
23118;BME280;11728;50.624;6.014;2022-10-16T00:36:40;97845.41;;;14.10;95.67
23118;BME280;11728;50.624;6.014;2022-10-16T00:42:01;97847.50;;;14.02;95.47
23118;BME280;11728;50.624;6.014;2022-10-16T00:47:34;97853.00;;;13.98;95.30
23118;BME280;11728;50.624;6.014;2022-10-16T00:52:56;97865.53;;;13.94;95.12
23118;BME280;11728;50.624;6.014;2022-10-16T00:58:17;97869.38;;;13.87;94.91
23118;BME280;11728;50.624;6.014;2022-10-16T01:03:38;97857.31;;;13.81;95.02
23118;BME280;11728;50.624;6.014;2022-10-16T01:14:41;97868.84;;;13.80;94.84
23118;BME280;11728;50.624;6.014;2022-10-16T01:31:18;97880.16;;;14.04;94.44
23118;BME280;11728;50.624;6.014;2022-10-16T01:36:43;97894.78;;;14.14;94.25
23118;BME280;11728;50.624;6.014;2022-10-16T01:42:14;97887.47;;;14.19;94.44
23118;BME280;11728;50.624;6.014;2022-10-16T01:47:36;97892.66;;;14.22;95.11
23118;BME280;11728;50.624;6.014;2022-10-16T01:52:58;97890.66;;;14.27;95.31
23118;BME280;11728;50.624;6.014;2022-10-16T01:58:19;97908.19;;;14.31;95.60
23118;BME280;11728;50.624;6.014;2022-10-16T02:03:42;97907.00;;;14.38;95.81
23118;BME280;11728;50.624;6.014;2022-10-16T02:09:03;97899.03;;;14.38;96.08
23118;BME280;11728;50.624;6.014;2022-10-16T02:14:25;97899.44;;;14.29;96.64
23118;BME280;11728;50.624;6.014;2022-10-16T02:19:48;97910.72;;;14.14;97.58
23118;BME280;11728;50.624;6.014;2022-10-16T02:25:26;97901.16;;;14.09;98.28
23118;BME280;11728;50.624;6.014;2022-10-16T02:30:59;97898.75;;;14.04;98.70
23118;BME280;11728;50.624;6.014;2022-10-16T02:36:22;97902.44;;;14.00;99.02
23118;BME280;11728;50.624;6.014;2022-10-16T02:41:43;97886.84;;;13.93;99.56
23118;BME280;11728;50.624;6.014;2022-10-16T02:47:04;97882.66;;;13.87;100.00
23118;BME280;11728;50.624;6.014;2022-10-16T02:52:25;97882.56;;;13.89;100.00
23118;BME280;11728;50.624;6.014;2022-10-16T02:57:46;97878.81;;;13.94;100.00
23118;BME280;11728;50.624;6.014;2022-10-16T03:03:07;97897.13;;;14.00;100.00
23118;BME280;11728;50.624;6.014;2022-10-16T03:08:28;97896.84;;;14.06;100.00
23118;BME280;11728;50.624;6.014;2022-10-16T03:13:49;97880.69;;;14.12;100.00
23118;BME280;11728;50.624;6.014;2022-10-16T03:19:10;97884.16;;;14.14;100.00
23118;BME280;11728;50.624;6.014;2022-10-16T03:24:30;97887.34;;;14.22;100.00
23118;BME280;11728;50.624;6.014;2022-10-16T03:29:51;97895.97;;;14.27;100.00
23118;BME280;11728;50.624;6.014;2022-10-16T03:35:12;97925.13;;;14.29;100.00
23118;BME280;11728;50.624;6.014;2022-10-16T03:40:33;97918.16;;;14.26;100.00
23118;BME280;11728;50.624;6.014;2022-10-16T03:45:54;97916.69;;;14.19;100.00
23118;BME280;11728;50.624;6.014;2022-10-16T03:51:15;97899.34;;;14.11;100.00
23118;BME280;11728;50.624;6.014;2022-10-16T03:56:36;97908.41;;;14.05;100.00
23118;BME280;11728;50.624;6.014;2022-10-16T04:01:56;97902.69;;;13.94;100.00
23118;BME280;11728;50.624;6.014;2022-10-16T04:07:17;97915.25;;;13.91;100.00
23118;BME280;11728;50.624;6.014;2022-10-16T04:12:38;97905.53;;;13.90;100.00
23118;BME280;11728;50.624;6.014;2022-10-16T04:17:59;97931.34;;;13.86;100.00
23118;BME280;11728;50.624;6.014;2022-10-16T04:23:21;97938.84;;;13.77;100.00
23118;BME280;11728;50.624;6.014;2022-10-16T04:28:43;97939.28;;;13.67;100.00
23118;BME280;11728;50.624;6.014;2022-10-16T04:34:04;97928.66;;;13.67;100.00
23118;BME280;11728;50.624;6.014;2022-10-16T04:39:25;97933.97;;;13.67;100.00
23118;BME280;11728;50.624;6.014;2022-10-16T04:44:46;97940.97;;;13.68;100.00
23118;BME280;11728;50.624;6.014;2022-10-16T04:50:07;97966.78;;;13.64;100.00
23118;BME280;11728;50.624;6.014;2022-10-16T04:55:28;97963.38;;;13.61;100.00
23118;BME280;11728;50.624;6.014;2022-10-16T05:00:49;97962.88;;;13.51;100.00
23118;BME280;11728;50.624;6.014;2022-10-16T05:06:10;97983.28;;;13.49;100.00
23118;BME280;11728;50.624;6.014;2022-10-16T05:11:31;97993.16;;;13.46;100.00
23118;BME280;11728;50.624;6.014;2022-10-16T05:16:52;97984.41;;;13.44;100.00
23118;BME280;11728;50.624;6.014;2022-10-16T05:22:13;97995.38;;;13.35;100.00
23118;BME280;11728;50.624;6.014;2022-10-16T05:27:34;97996.38;;;13.32;100.00
23118;BME280;11728;50.624;6.014;2022-10-16T05:32:55;98035.63;;;13.23;100.00
23118;BME280;11728;50.624;6.014;2022-10-16T05:38:16;98016.19;;;13.22;100.00
23118;BME280;11728;50.624;6.014;2022-10-16T05:43:37;98045.84;;;13.33;100.00
23118;BME280;11728;50.624;6.014;2022-10-16T05:48:58;98050.19;;;13.57;100.00
23118;BME280;11728;50.624;6.014;2022-10-16T05:54:19;98055.78;;;13.73;100.00
23118;BME280;11728;50.624;6.014;2022-10-16T05:59:40;98058.75;;;13.86;100.00
23118;BME280;11728;50.624;6.014;2022-10-16T06:05:01;98070.19;;;13.88;100.00
23118;BME280;11728;50.624;6.014;2022-10-16T06:10:22;98074.13;;;13.79;100.00
23118;BME280;11728;50.624;6.014;2022-10-16T06:15:43;98087.97;;;13.64;100.00
23118;BME280;11728;50.624;6.014;2022-10-16T06:21:30;98096.19;;;13.58;100.00
23118;BME280;11728;50.624;6.014;2022-10-16T06:26:51;98102.06;;;13.66;100.00
23118;BME280;11728;50.624;6.014;2022-10-16T06:32:12;98101.81;;;13.72;100.00
23118;BME280;11728;50.624;6.014;2022-10-16T06:37:33;98103.81;;;13.88;100.00
23118;BME280;11728;50.624;6.014;2022-10-16T06:42:57;98106.59;;;14.08;100.00
23118;BME280;11728;50.624;6.014;2022-10-16T06:48:19;98125.34;;;14.26;100.00
23118;BME280;11728;50.624;6.014;2022-10-16T06:53:42;98133.50;;;14.43;100.00
23118;BME280;11728;50.624;6.014;2022-10-16T06:59:04;98138.19;;;14.58;100.00
23118;BME280;11728;50.624;6.014;2022-10-16T07:04:24;98148.44;;;14.67;100.00
23118;BME280;11728;50.624;6.014;2022-10-16T07:09:45;98157.28;;;14.67;100.00
23118;BME280;11728;50.624;6.014;2022-10-16T07:15:07;98155.41;;;15.11;100.00
23118;BME280;11728;50.624;6.014;2022-10-16T07:20:27;98166.25;;;16.04;98.81
23118;BME280;11728;50.624;6.014;2022-10-16T07:25:53;98181.53;;;15.62;99.43
23118;BME280;11728;50.624;6.014;2022-10-16T07:31:16;98184.81;;;15.69;99.16
23118;BME280;11728;50.624;6.014;2022-10-16T07:36:37;98195.78;;;15.81;98.98
23118;BME280;11728;50.624;6.014;2022-10-16T07:41:58;98194.44;;;16.83;96.14
23118;BME280;11728;50.624;6.014;2022-10-16T07:47:19;98193.53;;;16.66;95.36
23118;BME280;11728;50.624;6.014;2022-10-16T07:52:41;98200.28;;;17.08;94.98
23118;BME280;11728;50.624;6.014;2022-10-16T07:58:02;98200.81;;;20.39;85.17
23118;BME280;11728;50.624;6.014;2022-10-16T08:03:23;98210.19;;;22.31;76.37
23118;BME280;11728;50.624;6.014;2022-10-16T08:08:44;98222.13;;;21.63;74.00
23118;BME280;11728;50.624;6.014;2022-10-16T08:14:05;98228.31;;;20.43;75.73
23118;BME280;11728;50.624;6.014;2022-10-16T08:19:26;98249.25;;;19.95;73.15
23118;BME280;11728;50.624;6.014;2022-10-16T08:24:47;98251.34;;;19.16;75.10
23118;BME280;11728;50.624;6.014;2022-10-16T08:30:08;98261.69;;;18.91;76.51
23118;BME280;11728;50.624;6.014;2022-10-16T08:35:30;98262.28;;;18.96;75.10
23118;BME280;11728;50.624;6.014;2022-10-16T08:40:51;98262.63;;;19.36;73.55
23118;BME280;11728;50.624;6.014;2022-10-16T08:46:25;98262.00;;;20.90;69.82
23118;BME280;11728;50.624;6.014;2022-10-16T08:51:51;98265.97;;;22.66;64.82
23118;BME280;11728;50.624;6.014;2022-10-16T08:57:23;98256.25;;;24.84;56.27
23118;BME280;11728;50.624;6.014;2022-10-16T09:03:10;98255.03;;;26.06;52.22
23118;BME280;11728;50.624;6.014;2022-10-16T09:20:39;98268.25;;;26.60;46.82
23118;BME280;11728;50.624;6.014;2022-10-16T09:26:04;98266.63;;;28.62;44.80
23118;BME280;11728;50.624;6.014;2022-10-16T09:31:26;98279.44;;;29.25;42.85
23118;BME280;11728;50.624;6.014;2022-10-16T09:36:47;98273.88;;;29.80;41.82
23118;BME280;11728;50.624;6.014;2022-10-16T09:42:11;98274.56;;;30.86;39.25
23118;BME280;11728;50.624;6.014;2022-10-16T09:47:44;98262.69;;;31.21;37.30
23118;BME280;11728;50.624;6.014;2022-10-16T09:53:13;98256.66;;;31.42;36.37
23118;BME280;11728;50.624;6.014;2022-10-16T09:58:34;98276.28;;;31.46;35.63
23118;BME280;11728;50.624;6.014;2022-10-16T10:03:57;98278.53;;;29.97;37.40
23118;BME280;11728;50.624;6.014;2022-10-16T10:14:48;98263.84;;;31.85;33.75
23118;BME280;11728;50.624;6.014;2022-10-16T10:25:53;98262.66;;;29.65;35.42
23118;BME280;11728;50.624;6.014;2022-10-16T10:31:27;98269.63;;;28.12;37.04
23118;BME280;11728;50.624;6.014;2022-10-16T10:37:14;98271.63;;;27.33;37.46
23118;BME280;11728;50.624;6.014;2022-10-16T10:42:45;98281.88;;;27.20;37.18
23118;BME280;11728;50.624;6.014;2022-10-16T10:53:47;98282.44;;;25.81;39.67
23118;BME280;11728;50.624;6.014;2022-10-16T11:10:47;98284.25;;;24.83;41.28
23118;BME280;11728;50.624;6.014;2022-10-16T11:16:21;98290.25;;;24.20;42.67
23118;BME280;11728;50.624;6.014;2022-10-16T11:21:49;98296.63;;;24.30;43.03
23118;BME280;11728;50.624;6.014;2022-10-16T11:27:16;98293.41;;;24.14;43.58
23118;BME280;11728;50.624;6.014;2022-10-16T11:38:34;98304.72;;;24.19;43.13
23118;BME280;11728;50.624;6.014;2022-10-16T11:44:16;98292.19;;;24.18;43.31
23118;BME280;11728;50.624;6.014;2022-10-16T11:49:40;98283.72;;;24.68;42.95
23118;BME280;11728;50.624;6.014;2022-10-16T11:55:17;98283.75;;;26.18;40.97
23118;BME280;11728;50.624;6.014;2022-10-16T12:06:37;98280.56;;;29.32;36.45
23118;BME280;11728;50.624;6.014;2022-10-16T12:12:01;98280.25;;;30.93;34.22
23118;BME280;11728;50.624;6.014;2022-10-16T12:17:33;98278.09;;;32.12;32.57
23118;BME280;11728;50.624;6.014;2022-10-16T12:22:59;98276.75;;;30.57;33.64
23118;BME280;11728;50.624;6.014;2022-10-16T12:28:25;98285.16;;;29.67;34.34
23118;BME280;11728;50.624;6.014;2022-10-16T12:34:23;98290.19;;;27.77;37.13
23118;BME280;11728;50.624;6.014;2022-10-16T12:39:47;98288.75;;;26.53;39.29
23118;BME280;11728;50.624;6.014;2022-10-16T12:45:28;98282.97;;;27.47;38.38
23118;BME280;11728;50.624;6.014;2022-10-16T12:50:49;98284.22;;;26.84;39.75
23118;BME280;11728;50.624;6.014;2022-10-16T12:56:24;98275.19;;;27.24;39.19
23118;BME280;11728;50.624;6.014;2022-10-16T13:01:52;98276.09;;;26.23;41.25
23118;BME280;11728;50.624;6.014;2022-10-16T13:07:33;98278.25;;;24.91;43.34
23118;BME280;11728;50.624;6.014;2022-10-16T13:30:08;98267.72;;;26.66;43.04
23118;BME280;11728;50.624;6.014;2022-10-16T13:35:33;98270.75;;;26.12;43.45
23118;BME280;11728;50.624;6.014;2022-10-16T13:46:21;98273.09;;;24.99;45.59
23118;BME280;11728;50.624;6.014;2022-10-16T13:51:56;98279.84;;;24.37;47.12
23118;BME280;11728;50.624;6.014;2022-10-16T13:57:22;98279.03;;;23.79;48.45
23118;BME280;11728;50.624;6.014;2022-10-16T14:02:43;98295.16;;;23.68;48.81
23118;BME280;11728;50.624;6.014;2022-10-16T14:08:04;98288.41;;;23.50;49.83
23118;BME280;11728;50.624;6.014;2022-10-16T14:18:56;98303.28;;;22.95;51.62
23118;BME280;11728;50.624;6.014;2022-10-16T14:24:27;98291.88;;;22.79;52.24
23118;BME280;11728;50.624;6.014;2022-10-16T14:29:48;98293.28;;;22.60;52.96
23118;BME280;11728;50.624;6.014;2022-10-16T14:35:33;98298.31;;;22.27;54.43
23118;BME280;11728;50.624;6.014;2022-10-16T14:40:57;98296.25;;;22.18;54.81
23118;BME280;11728;50.624;6.014;2022-10-16T14:46:28;98291.94;;;22.03;55.39
23118;BME280;11728;50.624;6.014;2022-10-16T14:51:50;98301.19;;;21.99;55.83
23118;BME280;11728;50.624;6.014;2022-10-16T14:57:17;98293.44;;;21.95;57.08
23118;BME280;11728;50.624;6.014;2022-10-16T15:02:39;98286.63;;;21.89;57.35
23118;BME280;11728;50.624;6.014;2022-10-16T15:08:02;98297.66;;;21.72;57.99
23118;BME280;11728;50.624;6.014;2022-10-16T15:13:25;98298.97;;;21.39;59.12
23118;BME280;11728;50.624;6.014;2022-10-16T15:18:45;98287.38;;;21.39;59.82
23118;BME280;11728;50.624;6.014;2022-10-16T15:24:11;98280.94;;;21.01;61.96
23118;BME280;11728;50.624;6.014;2022-10-16T15:29:32;98284.06;;;20.81;62.81
23118;BME280;11728;50.624;6.014;2022-10-16T15:34:53;98287.56;;;20.68;63.52
23118;BME280;11728;50.624;6.014;2022-10-16T15:40:14;98290.44;;;20.51;64.38
23118;BME280;11728;50.624;6.014;2022-10-16T15:45:36;98276.84;;;20.40;65.42
23118;BME280;11728;50.624;6.014;2022-10-16T15:50:56;98274.59;;;20.32;65.89
23118;BME280;11728;50.624;6.014;2022-10-16T15:56:17;98278.06;;;20.34;66.03
23118;BME280;11728;50.624;6.014;2022-10-16T16:01:38;98270.00;;;20.20;66.89
23118;BME280;11728;50.624;6.014;2022-10-16T16:06:59;98264.53;;;20.08;67.28
23118;BME280;11728;50.624;6.014;2022-10-16T16:12:20;98267.56;;;20.02;68.22
23118;BME280;11728;50.624;6.014;2022-10-16T16:17:40;98269.72;;;20.11;67.65
23118;BME280;11728;50.624;6.014;2022-10-16T16:23:01;98274.00;;;20.00;68.06
23118;BME280;11728;50.624;6.014;2022-10-16T16:28:22;98278.75;;;19.95;68.82
23118;BME280;11728;50.624;6.014;2022-10-16T16:33:43;98268.56;;;19.86;69.46
23118;BME280;11728;50.624;6.014;2022-10-16T16:39:04;98280.00;;;19.74;70.61
23118;BME280;11728;50.624;6.014;2022-10-16T16:44:25;98286.81;;;19.79;70.70
23118;BME280;11728;50.624;6.014;2022-10-16T16:49:46;98256.25;;;19.68;71.89
23118;BME280;11728;50.624;6.014;2022-10-16T16:55:07;98263.25;;;19.41;73.83
23118;BME280;11728;50.624;6.014;2022-10-16T17:00:28;98271.53;;;19.36;74.42
23118;BME280;11728;50.624;6.014;2022-10-16T17:06:03;98288.59;;;19.20;75.73
23118;BME280;11728;50.624;6.014;2022-10-16T17:11:25;98286.06;;;19.17;76.04
23118;BME280;11728;50.624;6.014;2022-10-16T17:16:47;98285.91;;;19.20;76.49
23118;BME280;11728;50.624;6.014;2022-10-16T17:22:09;98275.03;;;19.06;77.42
23118;BME280;11728;50.624;6.014;2022-10-16T17:27:30;98282.84;;;19.11;76.97
23118;BME280;11728;50.624;6.014;2022-10-16T17:32:51;98290.88;;;18.95;78.05
23118;BME280;11728;50.624;6.014;2022-10-16T17:38:13;98297.31;;;18.91;78.31
23118;BME280;11728;50.624;6.014;2022-10-16T17:43:34;98284.63;;;18.79;79.79
23118;BME280;11728;50.624;6.014;2022-10-16T17:48:55;98283.41;;;18.69;80.40
23118;BME280;11728;50.624;6.014;2022-10-16T17:54:19;98300.03;;;18.59;82.19
23118;BME280;11728;50.624;6.014;2022-10-16T17:59:40;98299.69;;;18.50;83.65
23118;BME280;11728;50.624;6.014;2022-10-16T18:05:02;98313.38;;;18.44;84.33
23118;BME280;11728;50.624;6.014;2022-10-16T18:10:25;98318.13;;;18.39;84.79
23118;BME280;11728;50.624;6.014;2022-10-16T18:15:46;98334.47;;;18.33;85.50
23118;BME280;11728;50.624;6.014;2022-10-16T18:21:08;98333.78;;;18.29;86.79
23118;BME280;11728;50.624;6.014;2022-10-16T18:26:30;98336.13;;;18.18;87.31
23118;BME280;11728;50.624;6.014;2022-10-16T18:31:55;98346.25;;;18.12;88.39
23118;BME280;11728;50.624;6.014;2022-10-16T18:37:18;98345.56;;;18.08;88.90
23118;BME280;11728;50.624;6.014;2022-10-16T18:42:40;98346.72;;;18.03;89.55
23118;BME280;11728;50.624;6.014;2022-10-16T18:48:01;98338.09;;;17.98;89.86
23118;BME280;11728;50.624;6.014;2022-10-16T18:53:23;98350.66;;;17.96;90.19
23118;BME280;11728;50.624;6.014;2022-10-16T18:58:45;98353.28;;;17.97;91.29
23118;BME280;11728;50.624;6.014;2022-10-16T19:04:10;98345.25;;;17.97;90.92
23118;BME280;11728;50.624;6.014;2022-10-16T19:09:32;98366.41;;;18.02;91.25
23118;BME280;11728;50.624;6.014;2022-10-16T19:14:53;98366.78;;;18.11;91.12
23118;BME280;11728;50.624;6.014;2022-10-16T19:20:14;98355.78;;;18.17;90.75
23118;BME280;11728;50.624;6.014;2022-10-16T19:25:37;98361.72;;;18.24;91.17
23118;BME280;11728;50.624;6.014;2022-10-16T19:31:01;98362.09;;;18.33;90.72
23118;BME280;11728;50.624;6.014;2022-10-16T19:36:24;98362.88;;;18.35;90.72
23118;BME280;11728;50.624;6.014;2022-10-16T19:41:46;98360.22;;;18.35;90.86
23118;BME280;11728;50.624;6.014;2022-10-16T19:47:07;98359.50;;;18.32;90.89
23118;BME280;11728;50.624;6.014;2022-10-16T19:52:28;98371.91;;;18.33;91.26
23118;BME280;11728;50.624;6.014;2022-10-16T19:57:49;98374.44;;;18.36;91.46
23118;BME280;11728;50.624;6.014;2022-10-16T20:03:10;98371.16;;;18.31;91.16
23118;BME280;11728;50.624;6.014;2022-10-16T20:08:33;98367.81;;;18.26;91.02
23118;BME280;11728;50.624;6.014;2022-10-16T20:13:54;98365.16;;;18.26;91.13
23118;BME280;11728;50.624;6.014;2022-10-16T20:19:15;98365.84;;;18.29;91.17
23118;BME280;11728;50.624;6.014;2022-10-16T20:24:36;98358.72;;;18.30;91.84
23118;BME280;11728;50.624;6.014;2022-10-16T20:29:57;98363.13;;;18.31;92.47
23118;BME280;11728;50.624;6.014;2022-10-16T20:35:18;98358.09;;;18.25;93.48
23118;BME280;11728;50.624;6.014;2022-10-16T20:40:42;98359.09;;;18.22;93.86
23118;BME280;11728;50.624;6.014;2022-10-16T20:46:05;98361.72;;;18.24;94.69
23118;BME280;11728;50.624;6.014;2022-10-16T20:51:30;98353.50;;;18.27;94.97
23118;BME280;11728;50.624;6.014;2022-10-16T20:56:51;98354.31;;;18.29;95.83
23118;BME280;11728;50.624;6.014;2022-10-16T21:02:13;98343.53;;;18.30;96.12
23118;BME280;11728;50.624;6.014;2022-10-16T21:07:35;98345.16;;;18.33;95.95
23118;BME280;11728;50.624;6.014;2022-10-16T21:12:56;98346.91;;;18.34;96.14
23118;BME280;11728;50.624;6.014;2022-10-16T21:18:17;98347.09;;;18.31;96.56
23118;BME280;11728;50.624;6.014;2022-10-16T21:23:38;98349.34;;;18.38;96.90
23118;BME280;11728;50.624;6.014;2022-10-16T21:29:01;98353.66;;;18.41;96.75
23118;BME280;11728;50.624;6.014;2022-10-16T21:34:22;98358.72;;;18.47;96.87
23118;BME280;11728;50.624;6.014;2022-10-16T21:39:43;98363.09;;;18.48;97.37
23118;BME280;11728;50.624;6.014;2022-10-16T21:45:04;98377.94;;;18.53;97.31
23118;BME280;11728;50.624;6.014;2022-10-16T21:50:25;98368.28;;;18.51;97.23
23118;BME280;11728;50.624;6.014;2022-10-16T21:55:46;98369.22;;;18.50;97.33
23118;BME280;11728;50.624;6.014;2022-10-16T22:01:09;98368.28;;;18.51;97.15
23118;BME280;11728;50.624;6.014;2022-10-16T22:06:30;98366.56;;;18.50;97.00
23118;BME280;11728;50.624;6.014;2022-10-16T22:11:51;98356.47;;;18.54;96.75
23118;BME280;11728;50.624;6.014;2022-10-16T22:17:12;98368.25;;;18.67;95.92
23118;BME280;11728;50.624;6.014;2022-10-16T22:22:33;98352.97;;;18.69;95.39
23118;BME280;11728;50.624;6.014;2022-10-16T22:27:54;98359.91;;;18.73;95.13
23118;BME280;11728;50.624;6.014;2022-10-16T22:33:15;98348.16;;;18.76;94.53
23118;BME280;11728;50.624;6.014;2022-10-16T22:38:36;98354.66;;;18.87;94.16
23118;BME280;11728;50.624;6.014;2022-10-16T22:43:57;98354.84;;;19.00;93.17
23118;BME280;11728;50.624;6.014;2022-10-16T22:49:18;98355.72;;;19.00;92.91
23118;BME280;11728;50.624;6.014;2022-10-16T22:54:40;98352.28;;;18.98;92.73
23118;BME280;11728;50.624;6.014;2022-10-16T23:00:00;98363.41;;;19.06;92.53
23118;BME280;11728;50.624;6.014;2022-10-16T23:05:21;98355.25;;;19.09;92.18
23118;BME280;11728;50.624;6.014;2022-10-16T23:10:44;98362.69;;;19.03;92.35
23118;BME280;11728;50.624;6.014;2022-10-16T23:16:06;98366.25;;;19.03;92.35
23118;BME280;11728;50.624;6.014;2022-10-16T23:21:27;98375.72;;;18.93;92.91
23118;BME280;11728;50.624;6.014;2022-10-16T23:26:47;98369.94;;;18.85;93.57
23118;BME280;11728;50.624;6.014;2022-10-16T23:32:08;98388.16;;;18.79;93.26
23118;BME280;11728;50.624;6.014;2022-10-16T23:37:29;98386.66;;;18.73;94.01
23118;BME280;11728;50.624;6.014;2022-10-16T23:42:50;98397.84;;;18.64;93.90
23118;BME280;11728;50.624;6.014;2022-10-16T23:48:11;98403.63;;;18.57;94.18
23118;BME280;11728;50.624;6.014;2022-10-16T23:53:32;98405.66;;;18.52;94.53
23118;BME280;11728;50.624;6.014;2022-10-16T23:58:53;98386.53;;;18.43;94.85
